CPA233 VHHH-LIMC
Flight info
| Callsign | CPA233 |
|---|---|
| Flight time | N/A |
| Altitude | 30100 |
| Route | BEKOL A461 SHL W22 TEPID W24 OSNOV G586 QP B330 ELKAL W179 IRVED/K0943S0980 W179 IGNAK/K0941S0950 W179 WFX/K0935S0980 W179 OMBON W195 VIDEK/K0935S0950 W195 LAXAL/K0928S0980 W195 IDOPA W197 ANDIM B215 IBANO G470 AKLAS W192 FKG/K0900S1040 A368 SARIN/K0900F340 N161 GASBI/N0490F360 N161 LEYLA T916 MATAL M11 REBLO UM11 CRM UM688 EKSUK UL852 NEGEM DCT DOLAP DCT ADOSA/N0489F370 DCT IDREK DCT ELTAR DCT NOBMI DCT PEXUG |
| Aircraft | B77W/H-SDE1E2E3FGHIJ2J3J4J5M1RWXY/LB1D1 |
Departure
| Time | N/A |
|---|---|
| Airport | Hong Kong International Airport (VHHH) |
Arrival
| Time | 2026-05-07 11:30 |
|---|---|
| Airport | Milan Malpensa International Airport (LIMC) |
| Time | Latitude | Longitude | Altitude | Speed | Heading |
|---|---|---|---|---|---|
| 2026-05-07 08:44 | 41.64217 | 33.39932 | 31493 ft | 469 kts | 292° |
| 2026-05-07 08:45 | 41.65252 | 33.35796 | 32229 ft | 467 kts | 292° |
| 2026-05-07 08:45 | 41.66267 | 33.31721 | 33090 ft | 461 kts | 292° |
| 2026-05-07 08:45 | 41.67273 | 33.27684 | 33851 ft | 456 kts | 292° |
| 2026-05-07 08:45 | 41.68263 | 33.23707 | 34435 ft | 455 kts | 292° |
| 2026-05-07 08:46 | 41.69267 | 33.19668 | 34872 ft | 454 kts | 292° |
| 2026-05-07 08:46 | 41.70252 | 33.15701 | 35294 ft | 454 kts | 291° |
| 2026-05-07 08:46 | 41.71248 | 33.11681 | 35681 ft | 454 kts | 291° |
| 2026-05-07 08:46 | 41.72226 | 33.07727 | 36089 ft | 453 kts | 291° |
| 2026-05-07 08:47 | 41.73215 | 33.03721 | 36536 ft | 452 kts | 291° |
| 2026-05-07 08:47 | 41.74200 | 32.99724 | 36955 ft | 452 kts | 291° |
| 2026-05-07 08:47 | 41.75193 | 32.95696 | 37137 ft | 455 kts | 291° |
| 2026-05-07 08:47 | 41.76169 | 32.91723 | 37156 ft | 455 kts | 291° |
| 2026-05-07 08:48 | 41.78133 | 32.83713 | 37148 ft | 453 kts | 291° |
| 2026-05-07 08:48 | 41.80089 | 32.75709 | 37153 ft | 453 kts | 291° |
| 2026-05-07 08:49 | 41.82032 | 32.67720 | 37142 ft | 452 kts | 291° |
| 2026-05-07 08:49 | 41.83968 | 32.59730 | 37137 ft | 452 kts | 291° |
| 2026-05-07 08:50 | 41.85894 | 32.51758 | 37128 ft | 452 kts | 291° |
| 2026-05-07 08:50 | 41.87827 | 32.43717 | 37123 ft | 452 kts | 291° |
| 2026-05-07 08:51 | 41.89738 | 32.35692 | 37124 ft | 454 kts | 291° |
| 2026-05-07 08:51 | 41.91658 | 32.27713 | 37126 ft | 453 kts | 291° |
| 2026-05-07 08:52 | 41.93574 | 32.19716 | 37131 ft | 452 kts | 290° |
| 2026-05-07 08:52 | 41.95483 | 32.11668 | 37134 ft | 453 kts | 290° |
| 2026-05-07 08:53 | 41.97379 | 32.03644 | 37131 ft | 452 kts | 290° |
| 2026-05-07 08:53 | 41.99278 | 31.95579 | 37131 ft | 452 kts | 290° |
| 2026-05-07 08:54 | 42.01157 | 31.87572 | 37129 ft | 451 kts | 291° |
| 2026-05-07 08:54 | 42.03037 | 31.79556 | 37140 ft | 451 kts | 291° |
| 2026-05-07 08:55 | 42.04919 | 31.71497 | 37141 ft | 451 kts | 291° |
| 2026-05-07 08:55 | 42.06782 | 31.63495 | 37128 ft | 449 kts | 291° |
| 2026-05-07 08:56 | 42.08636 | 31.55503 | 37137 ft | 451 kts | 291° |
| 2026-05-07 08:56 | 42.10495 | 31.47459 | 37147 ft | 449 kts | 291° |
| 2026-05-07 08:57 | 42.12333 | 31.39477 | 37148 ft | 449 kts | 291° |
| 2026-05-07 08:57 | 42.14171 | 31.31463 | 37149 ft | 450 kts | 290° |
| 2026-05-07 08:58 | 42.15998 | 31.23471 | 37148 ft | 449 kts | 291° |
| 2026-05-07 08:58 | 42.17824 | 31.15452 | 37141 ft | 448 kts | 291° |
| 2026-05-07 08:59 | 42.19641 | 31.07444 | 37140 ft | 448 kts | 291° |
| 2026-05-07 08:59 | 42.21444 | 30.99467 | 37148 ft | 447 kts | 291° |
| 2026-05-07 09:00 | 42.23243 | 30.91482 | 37142 ft | 445 kts | 291° |
| 2026-05-07 09:00 | 42.25042 | 30.83468 | 37143 ft | 446 kts | 290° |
| 2026-05-07 09:01 | 42.26819 | 30.75520 | 37144 ft | 447 kts | 291° |
| 2026-05-07 09:01 | 42.28604 | 30.67508 | 37142 ft | 447 kts | 290° |
| 2026-05-07 09:02 | 42.30378 | 30.59515 | 37144 ft | 447 kts | 291° |
| 2026-05-07 09:02 | 42.32150 | 30.51501 | 37145 ft | 445 kts | 290° |
| 2026-05-07 09:03 | 42.33914 | 30.43498 | 37158 ft | 445 kts | 290° |
| 2026-05-07 09:03 | 42.35667 | 30.35511 | 37159 ft | 446 kts | 290° |
| 2026-05-07 09:04 | 42.37421 | 30.27490 | 37159 ft | 446 kts | 290° |
| 2026-05-07 09:04 | 42.39173 | 30.19451 | 37159 ft | 445 kts | 290° |
| 2026-05-07 09:05 | 42.40905 | 30.11473 | 37159 ft | 445 kts | 290° |
| 2026-05-07 09:05 | 42.42635 | 30.03470 | 37154 ft | 444 kts | 289° |
| 2026-05-07 09:06 | 42.44366 | 29.95437 | 37161 ft | 444 kts | 289° |
| 2026-05-07 09:06 | 42.46078 | 29.87460 | 37153 ft | 445 kts | 289° |
| 2026-05-07 09:07 | 42.47493 | 29.79320 | 37142 ft | 446 kts | 285° |
| 2026-05-07 09:07 | 42.48770 | 29.71129 | 37144 ft | 445 kts | 285° |
| 2026-05-07 09:08 | 42.50056 | 29.62953 | 37141 ft | 446 kts | 285° |
| 2026-05-07 09:08 | 42.51346 | 29.54770 | 37144 ft | 447 kts | 285° |
| 2026-05-07 09:09 | 42.52640 | 29.46553 | 37142 ft | 447 kts | 285° |
| 2026-05-07 09:09 | 42.53931 | 29.38334 | 37145 ft | 446 kts | 285° |
| 2026-05-07 09:10 | 42.55210 | 29.30158 | 37145 ft | 446 kts | 285° |
| 2026-05-07 09:10 | 42.56489 | 29.21948 | 37141 ft | 445 kts | 285° |
| 2026-05-07 09:11 | 42.57756 | 29.13779 | 37137 ft | 445 kts | 284° |
| 2026-05-07 09:11 | 42.59017 | 29.05602 | 37141 ft | 443 kts | 285° |
| 2026-05-07 09:12 | 42.60268 | 28.97449 | 37142 ft | 443 kts | 285° |
| 2026-05-07 09:12 | 42.61520 | 28.89254 | 37133 ft | 443 kts | 285° |
| 2026-05-07 09:13 | 42.62753 | 28.81142 | 37132 ft | 442 kts | 285° |
| 2026-05-07 09:13 | 42.63992 | 28.72947 | 37135 ft | 443 kts | 285° |
| 2026-05-07 09:14 | 42.65222 | 28.64773 | 37133 ft | 443 kts | 285° |
| 2026-05-07 09:14 | 42.66441 | 28.56625 | 37130 ft | 443 kts | 285° |
| 2026-05-07 09:15 | 42.67658 | 28.48457 | 37129 ft | 442 kts | 285° |
| 2026-05-07 09:15 | 42.68869 | 28.40283 | 37128 ft | 442 kts | 284° |
| 2026-05-07 09:16 | 42.70068 | 28.32144 | 37138 ft | 442 kts | 284° |
| 2026-05-07 09:16 | 42.71268 | 28.23960 | 37133 ft | 441 kts | 284° |
| 2026-05-07 09:17 | 42.72446 | 28.15876 | 37129 ft | 440 kts | 284° |
| 2026-05-07 09:17 | 42.73630 | 28.07718 | 37128 ft | 439 kts | 284° |
| 2026-05-07 09:18 | 42.74803 | 27.99591 | 37132 ft | 440 kts | 284° |
| 2026-05-07 09:18 | 42.75976 | 27.91422 | 37126 ft | 440 kts | 284° |
| 2026-05-07 09:19 | 42.77145 | 27.83238 | 37118 ft | 441 kts | 284° |
| 2026-05-07 09:19 | 42.78297 | 27.75125 | 37118 ft | 441 kts | 284° |
| 2026-05-07 09:20 | 42.79452 | 27.66945 | 37117 ft | 440 kts | 284° |
| 2026-05-07 09:20 | 42.80602 | 27.58761 | 37115 ft | 440 kts | 284° |
| 2026-05-07 09:21 | 42.81741 | 27.50613 | 37110 ft | 440 kts | 284° |
| 2026-05-07 09:21 | 42.82875 | 27.42448 | 37102 ft | 439 kts | 284° |
| 2026-05-07 09:22 | 42.84000 | 27.34312 | 37101 ft | 441 kts | 283° |
| 2026-05-07 09:22 | 42.85133 | 27.26071 | 37100 ft | 441 kts | 283° |
| 2026-05-07 09:23 | 42.86250 | 27.17893 | 37098 ft | 442 kts | 283° |
| 2026-05-07 09:23 | 42.87368 | 27.09667 | 37087 ft | 441 kts | 283° |
| 2026-05-07 09:24 | 42.88480 | 27.01442 | 37068 ft | 443 kts | 283° |
| 2026-05-07 09:24 | 42.89592 | 26.93168 | 37063 ft | 442 kts | 283° |
| 2026-05-07 09:25 | 42.90687 | 26.84976 | 37065 ft | 442 kts | 283° |
| 2026-05-07 09:25 | 42.91784 | 26.76719 | 37054 ft | 441 kts | 282° |
| 2026-05-07 09:26 | 42.92863 | 26.68550 | 37055 ft | 440 kts | 282° |
| 2026-05-07 09:26 | 42.93943 | 26.60324 | 37061 ft | 440 kts | 282° |
| 2026-05-07 09:27 | 42.95015 | 26.52117 | 37061 ft | 441 kts | 282° |
| 2026-05-07 09:28 | 42.96617 | 26.39755 | 37069 ft | 442 kts | 282° |
| 2026-05-07 09:28 | 42.97674 | 26.31547 | 37075 ft | 442 kts | 282° |
| 2026-05-07 09:29 | 42.98727 | 26.23310 | 37075 ft | 440 kts | 281° |
| 2026-05-07 09:29 | 42.99775 | 26.15072 | 37071 ft | 440 kts | 281° |
| 2026-05-07 09:30 | 43.00817 | 26.06827 | 37060 ft | 441 kts | 281° |
| 2026-05-07 09:30 | 43.01857 | 25.98547 | 37053 ft | 440 kts | 281° |
| 2026-05-07 09:31 | 43.02882 | 25.90344 | 37045 ft | 440 kts | 281° |
| 2026-05-07 09:31 | 43.03908 | 25.82071 | 37043 ft | 441 kts | 281° |
| 2026-05-07 09:32 | 43.04923 | 25.73849 | 37039 ft | 442 kts | 281° |
| 2026-05-07 09:32 | 43.05944 | 25.65514 | 37041 ft | 441 kts | 281° |
| 2026-05-07 09:33 | 43.06955 | 25.57216 | 37045 ft | 441 kts | 281° |
| 2026-05-07 09:33 | 43.07948 | 25.49015 | 37051 ft | 440 kts | 281° |
| 2026-05-07 09:34 | 43.08941 | 25.40762 | 37056 ft | 441 kts | 281° |
| 2026-05-07 09:34 | 43.09933 | 25.32470 | 37066 ft | 441 kts | 280° |
| 2026-05-07 09:35 | 43.10915 | 25.24202 | 37068 ft | 441 kts | 280° |
| 2026-05-07 09:35 | 43.11890 | 25.15939 | 37065 ft | 441 kts | 280° |
| 2026-05-07 09:36 | 43.12861 | 25.07667 | 37059 ft | 442 kts | 279° |
| 2026-05-07 09:36 | 43.13344 | 25.03523 | 37227 ft | 443 kts | 279° |
| 2026-05-07 09:36 | 43.13828 | 24.99368 | 37056 ft | 438 kts | 279° |
| 2026-05-07 09:36 | 43.14299 | 24.95298 | 36831 ft | 437 kts | 279° |
| 2026-05-07 09:37 | 43.14775 | 24.91182 | 37069 ft | 439 kts | 279° |
| 2026-05-07 09:37 | 43.15728 | 24.82899 | 37064 ft | 442 kts | 279° |
| 2026-05-07 09:38 | 43.16675 | 24.74611 | 37063 ft | 442 kts | 279° |
| 2026-05-07 09:38 | 43.17613 | 24.66347 | 37061 ft | 441 kts | 279° |
| 2026-05-07 09:39 | 43.18549 | 24.58047 | 37059 ft | 441 kts | 279° |
| 2026-05-07 09:39 | 43.19477 | 24.49755 | 37060 ft | 443 kts | 279° |
| 2026-05-07 09:40 | 43.20403 | 24.41435 | 37058 ft | 442 kts | 279° |
| 2026-05-07 09:40 | 43.21316 | 24.33173 | 37058 ft | 443 kts | 278° |
| 2026-05-07 09:41 | 43.22230 | 24.24836 | 37060 ft | 441 kts | 278° |
| 2026-05-07 09:41 | 43.23139 | 24.16497 | 37060 ft | 444 kts | 278° |
| 2026-05-07 09:42 | 43.24038 | 24.08191 | 37062 ft | 443 kts | 278° |
| 2026-05-07 09:42 | 43.24935 | 23.99843 | 37064 ft | 443 kts | 278° |
| 2026-05-07 09:43 | 43.25827 | 23.91487 | 37061 ft | 442 kts | 278° |
| 2026-05-07 09:43 | 43.26709 | 23.83159 | 37065 ft | 443 kts | 278° |
| 2026-05-07 09:44 | 43.27586 | 23.74814 | 37063 ft | 442 kts | 277° |
| 2026-05-07 09:44 | 43.28460 | 23.66451 | 37066 ft | 443 kts | 278° |
| 2026-05-07 09:45 | 43.29322 | 23.58136 | 37067 ft | 441 kts | 277° |
| 2026-05-07 09:45 | 43.30180 | 23.49798 | 37065 ft | 444 kts | 277° |
| 2026-05-07 09:46 | 43.31033 | 23.41449 | 37070 ft | 441 kts | 277° |
| 2026-05-07 09:46 | 43.31883 | 23.33060 | 37081 ft | 443 kts | 276° |
| 2026-05-07 09:47 | 43.32722 | 23.24729 | 37087 ft | 442 kts | 277° |
| 2026-05-07 09:47 | 43.33551 | 23.16421 | 37089 ft | 442 kts | 276° |
| 2026-05-07 09:48 | 43.34383 | 23.08036 | 37093 ft | 441 kts | 276° |
| 2026-05-07 09:48 | 43.35202 | 22.99712 | 37105 ft | 440 kts | 276° |
| 2026-05-07 09:49 | 43.36019 | 22.91334 | 37101 ft | 443 kts | 276° |
| 2026-05-07 09:49 | 43.36831 | 22.82958 | 37101 ft | 441 kts | 276° |
| 2026-05-07 09:50 | 43.37843 | 22.74637 | 37100 ft | 444 kts | 284° |
| 2026-05-07 09:50 | 43.39878 | 22.66628 | 37100 ft | 446 kts | 288° |
| 2026-05-07 09:51 | 43.41961 | 22.58610 | 37094 ft | 446 kts | 287° |
| 2026-05-07 09:51 | 43.44007 | 22.50595 | 37092 ft | 447 kts | 287° |
| 2026-05-07 09:52 | 43.46042 | 22.42535 | 37087 ft | 445 kts | 287° |
| 2026-05-07 09:52 | 43.48054 | 22.34504 | 37086 ft | 447 kts | 286° |
| 2026-05-07 09:53 | 43.50064 | 22.26440 | 37091 ft | 446 kts | 286° |
| 2026-05-07 09:53 | 43.52082 | 22.18308 | 37089 ft | 447 kts | 286° |
| 2026-05-07 09:54 | 43.54090 | 22.10183 | 37087 ft | 448 kts | 286° |
| 2026-05-07 09:54 | 43.56089 | 22.02063 | 37086 ft | 448 kts | 286° |
| 2026-05-07 09:55 | 43.58072 | 21.93976 | 37089 ft | 448 kts | 285° |
| 2026-05-07 09:55 | 43.60053 | 21.85870 | 37081 ft | 448 kts | 285° |
| 2026-05-07 09:56 | 43.62022 | 21.77785 | 37084 ft | 448 kts | 285° |
| 2026-05-07 09:56 | 43.64000 | 21.69631 | 37079 ft | 449 kts | 285° |
| 2026-05-07 09:57 | 43.65976 | 21.61461 | 37070 ft | 449 kts | 285° |
| 2026-05-07 09:57 | 43.67928 | 21.53358 | 37067 ft | 449 kts | 285° |
| 2026-05-07 09:58 | 43.69888 | 21.45190 | 37064 ft | 449 kts | 285° |
| 2026-05-07 09:58 | 43.71848 | 21.36994 | 37066 ft | 450 kts | 285° |
| 2026-05-07 09:59 | 43.73787 | 21.28859 | 37065 ft | 447 kts | 284° |
| 2026-05-07 09:59 | 43.75736 | 21.20648 | 37071 ft | 450 kts | 284° |
| 2026-05-07 10:00 | 43.77673 | 21.12463 | 37071 ft | 449 kts | 284° |
| 2026-05-07 10:00 | 43.79600 | 21.04286 | 37072 ft | 450 kts | 284° |
| 2026-05-07 10:01 | 43.81535 | 20.96042 | 37074 ft | 451 kts | 284° |
| 2026-05-07 10:01 | 43.83460 | 20.87816 | 37077 ft | 451 kts | 284° |
| 2026-05-07 10:02 | 43.85375 | 20.79602 | 37076 ft | 452 kts | 284° |
| 2026-05-07 10:02 | 43.87293 | 20.71341 | 37067 ft | 451 kts | 284° |
| 2026-05-07 10:03 | 43.89204 | 20.63078 | 37077 ft | 451 kts | 284° |
| 2026-05-07 10:03 | 43.91112 | 20.54803 | 37071 ft | 451 kts | 284° |
| 2026-05-07 10:04 | 43.93002 | 20.46573 | 37073 ft | 451 kts | 284° |
| 2026-05-07 10:04 | 43.94886 | 20.38332 | 37070 ft | 451 kts | 284° |
| 2026-05-07 10:05 | 43.96780 | 20.30025 | 37069 ft | 449 kts | 283° |
| 2026-05-07 10:05 | 43.98659 | 20.21745 | 37069 ft | 452 kts | 283° |
| 2026-05-07 10:06 | 44.00534 | 20.13453 | 37067 ft | 453 kts | 283° |
| 2026-05-07 10:06 | 44.02403 | 20.05160 | 37058 ft | 452 kts | 283° |
| 2026-05-07 10:07 | 44.04271 | 19.96834 | 37069 ft | 454 kts | 283° |
| 2026-05-07 10:07 | 44.06136 | 19.88492 | 37063 ft | 452 kts | 283° |
| 2026-05-07 10:08 | 44.07982 | 19.80203 | 37061 ft | 453 kts | 283° |
| 2026-05-07 10:08 | 44.09831 | 19.71866 | 37067 ft | 453 kts | 283° |
| 2026-05-07 10:09 | 44.11679 | 19.63503 | 37051 ft | 451 kts | 283° |
| 2026-05-07 10:09 | 44.13512 | 19.55172 | 37062 ft | 453 kts | 283° |
| 2026-05-07 10:10 | 44.15350 | 19.46792 | 37070 ft | 451 kts | 283° |
| 2026-05-07 10:10 | 44.17171 | 19.38446 | 37051 ft | 454 kts | 283° |
| 2026-05-07 10:11 | 44.19000 | 19.30040 | 37060 ft | 453 kts | 283° |
| 2026-05-07 10:11 | 44.20813 | 19.21670 | 37065 ft | 451 kts | 283° |
| 2026-05-07 10:12 | 44.22615 | 19.13319 | 37066 ft | 452 kts | 283° |
| 2026-05-07 10:12 | 44.24417 | 19.04930 | 37055 ft | 453 kts | 283° |
| 2026-05-07 10:13 | 44.26226 | 18.96479 | 37070 ft | 453 kts | 283° |
| 2026-05-07 10:13 | 44.28018 | 18.88074 | 37068 ft | 453 kts | 283° |
| 2026-05-07 10:14 | 44.29796 | 18.79699 | 37065 ft | 453 kts | 283° |
| 2026-05-07 10:14 | 44.31576 | 18.71279 | 37061 ft | 453 kts | 283° |
| 2026-05-07 10:15 | 44.33345 | 18.62881 | 37063 ft | 453 kts | 283° |
| 2026-05-07 10:15 | 44.35112 | 18.54456 | 37065 ft | 454 kts | 283° |
| 2026-05-07 10:16 | 44.36874 | 18.46022 | 37057 ft | 453 kts | 283° |
| 2026-05-07 10:16 | 44.38630 | 18.37577 | 37058 ft | 453 kts | 283° |
| 2026-05-07 10:17 | 44.40376 | 18.29149 | 37054 ft | 452 kts | 282° |
| 2026-05-07 10:17 | 44.42109 | 18.20748 | 37054 ft | 452 kts | 282° |
| 2026-05-07 10:18 | 44.43845 | 18.12296 | 37054 ft | 452 kts | 282° |
| 2026-05-07 10:18 | 44.45576 | 18.03834 | 37047 ft | 452 kts | 282° |
| 2026-05-07 10:19 | 44.47254 | 17.95598 | 37049 ft | 451 kts | 282° |
| 2026-05-07 10:19 | 44.48967 | 17.87156 | 37048 ft | 451 kts | 282° |
| 2026-05-07 10:20 | 44.50662 | 17.78764 | 37048 ft | 451 kts | 282° |
| 2026-05-07 10:20 | 44.52354 | 17.70353 | 37041 ft | 450 kts | 282° |
| 2026-05-07 10:21 | 44.54046 | 17.61910 | 37035 ft | 450 kts | 282° |
| 2026-05-07 10:21 | 44.55720 | 17.53516 | 37041 ft | 449 kts | 282° |
| 2026-05-07 10:22 | 44.57384 | 17.45143 | 37042 ft | 446 kts | 282° |
| 2026-05-07 10:22 | 44.59031 | 17.36816 | 37038 ft | 445 kts | 282° |
| 2026-05-07 10:23 | 44.60680 | 17.28439 | 37044 ft | 444 kts | 281° |
| 2026-05-07 10:23 | 44.62314 | 17.20106 | 37049 ft | 442 kts | 281° |
| 2026-05-07 10:24 | 44.63929 | 17.11833 | 37043 ft | 443 kts | 281° |
| 2026-05-07 10:24 | 44.65548 | 17.03509 | 37040 ft | 443 kts | 281° |
| 2026-05-07 10:25 | 44.67161 | 16.95175 | 37037 ft | 442 kts | 281° |
| 2026-05-07 10:25 | 44.68760 | 16.86881 | 37026 ft | 443 kts | 281° |
| 2026-05-07 10:26 | 44.70361 | 16.78539 | 37024 ft | 442 kts | 281° |
| 2026-05-07 10:26 | 44.71948 | 16.70234 | 37023 ft | 442 kts | 281° |
| 2026-05-07 10:27 | 44.73527 | 16.61933 | 37018 ft | 443 kts | 281° |
| 2026-05-07 10:27 | 44.75113 | 16.53564 | 37015 ft | 441 kts | 281° |
| 2026-05-07 10:28 | 44.76672 | 16.45295 | 37011 ft | 441 kts | 281° |
| 2026-05-07 10:28 | 44.78234 | 16.36980 | 37005 ft | 443 kts | 281° |
| 2026-05-07 10:29 | 44.79791 | 16.28653 | 37011 ft | 440 kts | 280° |
| 2026-05-07 10:29 | 44.81338 | 16.20342 | 37005 ft | 440 kts | 280° |
| 2026-05-07 10:30 | 44.83646 | 16.07874 | 36992 ft | 439 kts | 279° |
| 2026-05-07 10:30 | 44.85173 | 15.99575 | 36990 ft | 440 kts | 279° |
| 2026-05-07 10:31 | 44.86709 | 15.91196 | 36993 ft | 440 kts | 279° |
| 2026-05-07 10:31 | 44.88225 | 15.82882 | 36995 ft | 441 kts | 279° |
| 2026-05-07 10:32 | 44.89743 | 15.74523 | 36992 ft | 441 kts | 279° |
| 2026-05-07 10:32 | 44.91253 | 15.66174 | 36985 ft | 439 kts | 279° |
| 2026-05-07 10:33 | 44.92739 | 15.57916 | 36997 ft | 439 kts | 279° |
| 2026-05-07 10:33 | 44.94233 | 15.49573 | 36989 ft | 441 kts | 279° |
| 2026-05-07 10:34 | 44.95718 | 15.41251 | 36997 ft | 437 kts | 279° |
| 2026-05-07 10:34 | 44.97201 | 15.32892 | 37001 ft | 440 kts | 278° |
| 2026-05-07 10:35 | 44.98674 | 15.24552 | 37014 ft | 440 kts | 278° |
| 2026-05-07 10:35 | 45.00149 | 15.16165 | 37006 ft | 439 kts | 278° |
| 2026-05-07 10:36 | 45.01601 | 15.07875 | 37002 ft | 437 kts | 278° |
| 2026-05-07 10:36 | 45.03058 | 14.99508 | 37013 ft | 439 kts | 279° |
| 2026-05-07 10:37 | 45.04509 | 14.91143 | 37000 ft | 440 kts | 279° |
| 2026-05-07 10:37 | 45.05944 | 14.82827 | 36990 ft | 439 kts | 278° |
| 2026-05-07 10:38 | 45.07388 | 14.74421 | 37003 ft | 438 kts | 279° |
| 2026-05-07 10:38 | 45.08817 | 14.66064 | 36999 ft | 438 kts | 279° |
| 2026-05-07 10:39 | 45.10250 | 14.57639 | 36995 ft | 438 kts | 279° |
| 2026-05-07 10:39 | 45.11669 | 14.49254 | 36975 ft | 439 kts | 279° |
| 2026-05-07 10:40 | 45.13071 | 14.40936 | 36986 ft | 438 kts | 278° |
| 2026-05-07 10:40 | 45.14473 | 14.32576 | 36981 ft | 438 kts | 278° |
| 2026-05-07 10:41 | 45.15866 | 14.24235 | 36998 ft | 436 kts | 278° |
| 2026-05-07 10:41 | 45.17259 | 14.15848 | 36995 ft | 436 kts | 278° |
| 2026-05-07 10:42 | 45.18643 | 14.07468 | 36990 ft | 438 kts | 278° |
| 2026-05-07 10:42 | 45.20020 | 13.99100 | 36995 ft | 439 kts | 278° |
| 2026-05-07 10:43 | 45.21395 | 13.90693 | 36995 ft | 437 kts | 278° |
| 2026-05-07 10:43 | 45.22758 | 13.82322 | 36994 ft | 439 kts | 278° |
| 2026-05-07 10:44 | 45.24121 | 13.73913 | 36988 ft | 436 kts | 278° |
| 2026-05-07 10:44 | 45.25466 | 13.65566 | 36978 ft | 438 kts | 278° |
| 2026-05-07 10:45 | 45.26817 | 13.57149 | 36980 ft | 437 kts | 278° |
| 2026-05-07 10:45 | 45.28159 | 13.48741 | 36978 ft | 437 kts | 278° |
| 2026-05-07 10:46 | 45.29493 | 13.40332 | 36968 ft | 439 kts | 278° |
| 2026-05-07 10:46 | 45.30832 | 13.31860 | 36982 ft | 438 kts | 278° |
| 2026-05-07 10:47 | 45.32159 | 13.23418 | 36980 ft | 439 kts | 278° |
| 2026-05-07 10:47 | 45.33476 | 13.14994 | 36975 ft | 438 kts | 277° |
| 2026-05-07 10:48 | 45.34786 | 13.06575 | 36967 ft | 439 kts | 278° |
| 2026-05-07 10:48 | 45.36094 | 12.98120 | 36971 ft | 438 kts | 278° |
| 2026-05-07 10:49 | 45.37394 | 12.89673 | 36978 ft | 439 kts | 278° |
| 2026-05-07 10:49 | 45.38689 | 12.81219 | 36967 ft | 441 kts | 278° |
| 2026-05-07 10:50 | 45.39983 | 12.72723 | 36971 ft | 439 kts | 278° |
| 2026-05-07 10:50 | 45.41269 | 12.64238 | 36963 ft | 440 kts | 278° |
| 2026-05-07 10:51 | 45.42548 | 12.55742 | 36963 ft | 442 kts | 278° |
| 2026-05-07 10:51 | 45.43833 | 12.47172 | 36963 ft | 441 kts | 278° |
| 2026-05-07 10:52 | 45.45097 | 12.38693 | 36955 ft | 441 kts | 278° |
| 2026-05-07 10:52 | 45.46360 | 12.30178 | 36977 ft | 441 kts | 277° |
| 2026-05-07 10:53 | 45.47626 | 12.21587 | 36973 ft | 441 kts | 277° |
| 2026-05-07 10:53 | 45.48883 | 12.13012 | 36984 ft | 445 kts | 277° |
| 2026-05-07 10:54 | 45.50128 | 12.04478 | 36965 ft | 442 kts | 278° |
| 2026-05-07 10:54 | 45.51374 | 11.95884 | 36965 ft | 442 kts | 278° |
| 2026-05-07 10:55 | 45.52605 | 11.87350 | 36970 ft | 442 kts | 278° |
| 2026-05-07 10:55 | 45.53835 | 11.78773 | 36977 ft | 443 kts | 278° |
| 2026-05-07 10:56 | 45.55062 | 11.70165 | 36963 ft | 443 kts | 278° |
| 2026-05-07 10:56 | 45.56283 | 11.61558 | 36962 ft | 443 kts | 278° |
| 2026-05-07 10:57 | 45.57492 | 11.52978 | 36959 ft | 444 kts | 278° |
| 2026-05-07 10:57 | 45.58702 | 11.44342 | 36949 ft | 444 kts | 278° |
| 2026-05-07 10:58 | 45.59307 | 11.40006 | 36813 ft | 444 kts | 278° |
| 2026-05-07 10:58 | 45.59900 | 11.35750 | 36946 ft | 442 kts | 278° |
| 2026-05-07 10:58 | 45.61093 | 11.27136 | 36977 ft | 442 kts | 277° |
| 2026-05-07 10:59 | 45.62282 | 11.18504 | 36969 ft | 439 kts | 277° |
| 2026-05-07 10:59 | 45.63454 | 11.09940 | 36972 ft | 441 kts | 277° |
| 2026-05-07 11:00 | 45.64243 | 11.01286 | 36978 ft | 438 kts | 269° |
| 2026-05-07 11:00 | 45.64414 | 10.92683 | 36982 ft | 438 kts | 269° |
| 2026-05-07 11:01 | 45.64539 | 10.83996 | 36983 ft | 438 kts | 269° |
| 2026-05-07 11:01 | 45.64634 | 10.75347 | 36969 ft | 438 kts | 269° |
| 2026-05-07 11:02 | 45.64711 | 10.66650 | 36972 ft | 439 kts | 268° |
| 2026-05-07 11:02 | 45.64771 | 10.57919 | 36966 ft | 439 kts | 268° |
| 2026-05-07 11:03 | 45.64813 | 10.49235 | 36986 ft | 439 kts | 269° |
| 2026-05-07 11:03 | 45.64896 | 10.40531 | 36978 ft | 439 kts | 269° |
| 2026-05-07 11:04 | 45.64975 | 10.31846 | 36899 ft | 437 kts | 268° |
| 2026-05-07 11:04 | 45.65044 | 10.23278 | 37003 ft | 433 kts | 268° |
| 2026-05-07 11:05 | 45.65105 | 10.14703 | 37002 ft | 431 kts | 269° |
| 2026-05-07 11:05 | 45.65160 | 10.06143 | 36992 ft | 429 kts | 268° |
| 2026-05-07 11:06 | 45.65208 | 9.97680 | 36995 ft | 428 kts | 268° |
| 2026-05-07 11:06 | 45.65249 | 9.89216 | 36994 ft | 427 kts | 268° |
| 2026-05-07 11:07 | 45.65284 | 9.80776 | 36984 ft | 425 kts | 269° |
| 2026-05-07 11:07 | 45.65312 | 9.72359 | 36969 ft | 425 kts | 269° |
| 2026-05-07 11:08 | 45.65323 | 9.68119 | 36500 ft | 438 kts | 269° |
| 2026-05-07 11:08 | 45.65333 | 9.63713 | 35605 ft | 459 kts | 269° |
| 2026-05-07 11:08 | 45.65340 | 9.59105 | 34686 ft | 469 kts | 269° |
| 2026-05-07 11:08 | 45.65344 | 9.54480 | 33828 ft | 467 kts | 269° |
| 2026-05-07 11:09 | 45.65345 | 9.49923 | 33098 ft | 463 kts | 269° |
| 2026-05-07 11:09 | 45.65345 | 9.45391 | 32240 ft | 456 kts | 269° |
| 2026-05-07 11:09 | 45.65344 | 9.40886 | 31351 ft | 448 kts | 269° |
| 2026-05-07 11:09 | 45.65340 | 9.36522 | 30436 ft | 442 kts | 270° |
| 2026-05-07 11:10 | 45.65342 | 9.32180 | 29463 ft | 436 kts | 270° |
| 2026-05-07 11:10 | 45.65366 | 9.27924 | 28510 ft | 431 kts | 270° |
| 2026-05-07 11:10 | 45.65390 | 9.23685 | 27535 ft | 428 kts | 270° |
| 2026-05-07 11:10 | 45.65411 | 9.19434 | 26517 ft | 424 kts | 271° |
| 2026-05-07 11:11 | 45.65430 | 9.15326 | 25547 ft | 419 kts | 271° |
| 2026-05-07 11:11 | 45.65447 | 9.11173 | 24488 ft | 414 kts | 271° |
| 2026-05-07 11:11 | 45.65462 | 9.07121 | 23421 ft | 410 kts | 271° |
| 2026-05-07 11:11 | 45.65469 | 9.03126 | 22334 ft | 405 kts | 269° |
| 2026-05-07 11:12 | 45.65149 | 8.99140 | 21220 ft | 402 kts | 258° |
| 2026-05-07 11:12 | 45.64327 | 8.95416 | 20148 ft | 398 kts | 248° |
| 2026-05-07 11:12 | 45.63016 | 8.91945 | 19072 ft | 396 kts | 237° |
| 2026-05-07 11:12 | 45.61317 | 8.88970 | 18025 ft | 394 kts | 227° |
| 2026-05-07 11:13 | 45.59215 | 8.86468 | 16981 ft | 392 kts | 216° |
| 2026-05-07 11:13 | 45.56849 | 8.84615 | 15951 ft | 390 kts | 205° |
| 2026-05-07 11:13 | 45.54287 | 8.83449 | 14924 ft | 388 kts | 193° |
| 2026-05-07 11:13 | 45.51649 | 8.83012 | 13915 ft | 386 kts | 182° |
| 2026-05-07 11:14 | 45.49001 | 8.83307 | 12903 ft | 383 kts | 171° |
| 2026-05-07 11:14 | 45.46471 | 8.84266 | 11898 ft | 380 kts | 160° |
| 2026-05-07 11:14 | 45.44107 | 8.85854 | 10890 ft | 376 kts | 153° |
| 2026-05-07 11:14 | 45.41808 | 8.87607 | 10047 ft | 366 kts | 152° |
| 2026-05-07 11:15 | 45.39637 | 8.89269 | 9423 ft | 353 kts | 152° |
| 2026-05-07 11:15 | 45.37520 | 8.90889 | 8798 ft | 341 kts | 152° |
| 2026-05-07 11:15 | 45.35469 | 8.92456 | 8197 ft | 330 kts | 152° |
| 2026-05-07 11:15 | 45.33478 | 8.93978 | 7686 ft | 318 kts | 152° |
| 2026-05-07 11:16 | 45.31578 | 8.95424 | 7195 ft | 308 kts | 154° |
| 2026-05-07 11:16 | 45.29595 | 8.96393 | 6695 ft | 298 kts | 167° |
| 2026-05-07 11:16 | 45.27596 | 8.96984 | 6203 ft | 290 kts | 169° |
| 2026-05-07 11:16 | 45.25633 | 8.97511 | 5734 ft | 283 kts | 169° |
| 2026-05-07 11:17 | 45.23733 | 8.98021 | 5650 ft | 271 kts | 169° |
| 2026-05-07 11:17 | 45.21936 | 8.98506 | 5632 ft | 257 kts | 169° |
| 2026-05-07 11:17 | 45.20222 | 8.98964 | 5616 ft | 243 kts | 170° |
| 2026-05-07 11:17 | 45.18599 | 8.99398 | 5605 ft | 230 kts | 170° |
| 2026-05-07 11:18 | 45.17064 | 8.99808 | 5604 ft | 224 kts | 170° |
| 2026-05-07 11:18 | 45.15541 | 9.00215 | 5607 ft | 223 kts | 170° |
| 2026-05-07 11:18 | 45.13995 | 9.00628 | 5602 ft | 222 kts | 170° |
| 2026-05-07 11:18 | 45.12479 | 9.01034 | 5425 ft | 227 kts | 170° |
| 2026-05-07 11:19 | 45.10911 | 9.01030 | 5094 ft | 227 kts | 197° |
| 2026-05-07 11:19 | 45.09572 | 8.99912 | 4749 ft | 228 kts | 228° |
| 2026-05-07 11:19 | 45.08833 | 8.97959 | 4408 ft | 228 kts | 259° |
| 2026-05-07 11:19 | 45.08918 | 8.95751 | 4055 ft | 230 kts | 290° |
| 2026-05-07 11:20 | 45.09629 | 8.93715 | 3729 ft | 231 kts | 298° |
| 2026-05-07 11:20 | 45.10412 | 8.91726 | 3409 ft | 231 kts | 298° |
| 2026-05-07 11:20 | 45.11193 | 8.89743 | 3106 ft | 231 kts | 298° |
| 2026-05-07 11:20 | 45.12031 | 8.87888 | 3029 ft | 221 kts | 314° |
| 2026-05-07 11:21 | 45.13308 | 8.86700 | 3022 ft | 221 kts | 339° |
| 2026-05-07 11:21 | 45.14777 | 8.86098 | 3026 ft | 222 kts | 346° |
| 2026-05-07 11:21 | 45.16300 | 8.85627 | 3027 ft | 222 kts | 348° |
| 2026-05-07 11:21 | 45.17794 | 8.85215 | 3028 ft | 221 kts | 348° |
| 2026-05-07 11:22 | 45.19312 | 8.84803 | 3028 ft | 220 kts | 348° |
| 2026-05-07 11:22 | 45.20822 | 8.84393 | 3023 ft | 221 kts | 348° |
| 2026-05-07 11:22 | 45.22325 | 8.83984 | 3026 ft | 220 kts | 349° |
| 2026-05-07 11:22 | 45.23801 | 8.83582 | 3025 ft | 213 kts | 349° |
| 2026-05-07 11:23 | 45.25265 | 8.83184 | 3028 ft | 212 kts | 349° |
| 2026-05-07 11:23 | 45.26707 | 8.82791 | 3028 ft | 212 kts | 349° |
| 2026-05-07 11:23 | 45.28163 | 8.82394 | 3021 ft | 212 kts | 349° |
| 2026-05-07 11:23 | 45.29613 | 8.81998 | 3020 ft | 212 kts | 349° |
| 2026-05-07 11:24 | 45.31054 | 8.81607 | 3018 ft | 212 kts | 349° |
| 2026-05-07 11:24 | 45.32514 | 8.81209 | 3018 ft | 213 kts | 349° |
| 2026-05-07 11:24 | 45.33963 | 8.80814 | 3019 ft | 213 kts | 349° |
| 2026-05-07 11:24 | 45.35430 | 8.80463 | 3016 ft | 214 kts | 357° |
| 2026-05-07 11:25 | 45.36911 | 8.80330 | 3017 ft | 215 kts | 355° |
| 2026-05-07 11:25 | 45.38395 | 8.80071 | 3014 ft | 213 kts | 352° |
| 2026-05-07 11:25 | 45.39857 | 8.79725 | 3015 ft | 214 kts | 350° |
| 2026-05-07 11:25 | 45.41325 | 8.79337 | 3014 ft | 214 kts | 349° |
| 2026-05-07 11:26 | 45.42789 | 8.78931 | 3022 ft | 210 kts | 349° |
| 2026-05-07 11:26 | 45.44180 | 8.78538 | 3011 ft | 198 kts | 349° |
| 2026-05-07 11:26 | 45.45511 | 8.78161 | 3015 ft | 192 kts | 349° |
| 2026-05-07 11:26 | 45.46818 | 8.77797 | 3021 ft | 192 kts | 349° |
| 2026-05-07 11:27 | 45.48130 | 8.77436 | 3020 ft | 192 kts | 349° |
| 2026-05-07 11:27 | 45.49440 | 8.77078 | 3022 ft | 192 kts | 350° |
| 2026-05-07 11:27 | 45.50779 | 8.76712 | 2820 ft | 197 kts | 350° |
| 2026-05-07 11:27 | 45.52099 | 8.76350 | 2552 ft | 187 kts | 350° |
| 2026-05-07 11:28 | 45.53331 | 8.76010 | 2309 ft | 175 kts | 350° |
| 2026-05-07 11:28 | 45.54460 | 8.75699 | 2072 ft | 156 kts | 350° |
| 2026-05-07 11:28 | 45.55512 | 8.75411 | 1881 ft | 150 kts | 350° |
| 2026-05-07 11:28 | 45.56539 | 8.75130 | 1685 ft | 149 kts | 350° |
| 2026-05-07 11:29 | 45.57554 | 8.74851 | 1486 ft | 148 kts | 349° |
| 2026-05-07 11:29 | 45.58559 | 8.74578 | 1295 ft | 147 kts | 349° |
| 2026-05-07 11:29 | 45.59560 | 8.74303 | 1110 ft | 146 kts | 349° |
| 2026-05-07 11:29 | 45.60557 | 8.74028 | 935 ft | 145 kts | 349° |
| 2026-05-07 11:30 | 45.61551 | 8.73757 | 741 ft | 145 kts | 348° |
| 2026-05-07 11:30 | 45.62476 | 8.73502 | 720 ft | 120 kts | 349° |
| 2026-05-07 11:30 | 45.63148 | 8.73316 | 733 ft | 76 kts | 349° |
| 2026-05-07 11:30 | 45.63517 | 8.73213 | 742 ft | 32 kts | 347° |
| 2026-05-07 11:31 | 45.63663 | 8.73132 | 747 ft | 19 kts | 333° |
| 2026-05-07 11:31 | 45.63758 | 8.73021 | 751 ft | 15 kts | 313° |
| 2026-05-07 11:31 | 45.63822 | 8.72907 | 753 ft | 14 kts | 306° |
| 2026-05-07 11:31 | 45.63884 | 8.72778 | 755 ft | 15 kts | 303° |
| 2026-05-07 11:32 | 45.63957 | 8.72559 | 758 ft | 11 kts | 268° |
| 2026-05-07 11:32 | 45.63945 | 8.72452 | 759 ft | 10 kts | 259° |
| 2026-05-07 11:32 | 45.63933 | 8.72357 | 760 ft | 11 kts | 260° |
| 2026-05-07 11:33 | 45.63919 | 8.72202 | 760 ft | 18 kts | 268° |
| 2026-05-07 11:33 | 45.63911 | 8.72000 | 764 ft | 20 kts | 264° |
| 2026-05-07 11:33 | 45.63862 | 8.71839 | 766 ft | 17 kts | 210° |
| 2026-05-07 11:33 | 45.63723 | 8.71847 | 763 ft | 22 kts | 169° |
| 2026-05-07 11:34 | 45.63571 | 8.71889 | 760 ft | 22 kts | 169° |
| 2026-05-07 11:34 | 45.63418 | 8.71931 | 757 ft | 22 kts | 169° |
| 2026-05-07 11:34 | 45.63331 | 8.71942 | 756 ft | 8 kts | 216° |
| 2026-05-07 11:34 | 45.63306 | 8.71861 | 755 ft | 9 kts | 257° |
| 2026-05-07 11:35 | 45.63294 | 8.71769 | 755 ft | 9 kts | 259° |
| 2026-05-07 11:35 | 45.63256 | 8.71694 | 754 ft | 10 kts | 220° |
| 2026-05-07 11:35 | 45.63206 | 8.71614 | 752 ft | 11 kts | 236° |
| 2026-05-07 11:35 | 45.63179 | 8.71557 | 751 ft | 0 kts | 236° |